sensor_id;sensor_type;location;lat;lon;timestamp;P1;durP1;ratioP1;P2;durP2;ratioP2
26277;SDS011;14000;52.056;8.510;2022-09-29T00:01:33;45.83;;;28.43;;
26277;SDS011;14000;52.056;8.510;2022-09-29T00:03:59;39.13;;;26.13;;
26277;SDS011;14000;52.056;8.510;2022-09-29T00:06:25;74.70;;;35.80;;
26277;SDS011;14000;52.056;8.510;2022-09-29T00:08:50;50.70;;;29.13;;
26277;SDS011;14000;52.056;8.510;2022-09-29T00:11:16;74.17;;;35.50;;
26277;SDS011;14000;52.056;8.510;2022-09-29T00:13:43;57.63;;;32.07;;
26277;SDS011;14000;52.056;8.510;2022-09-29T00:16:10;43.93;;;27.87;;
26277;SDS011;14000;52.056;8.510;2022-09-29T00:18:36;67.53;;;36.23;;
26277;SDS011;14000;52.056;8.510;2022-09-29T00:21:04;45.20;;;29.73;;
26277;SDS011;14000;52.056;8.510;2022-09-29T00:23:31;56.00;;;32.37;;
26277;SDS011;14000;52.056;8.510;2022-09-29T00:26:08;72.40;;;39.00;;
26277;SDS011;14000;52.056;8.510;2022-09-29T00:28:37;60.37;;;34.67;;
26277;SDS011;14000;52.056;8.510;2022-09-29T00:31:04;58.20;;;34.63;;
26277;SDS011;14000;52.056;8.510;2022-09-29T00:33:31;123.87;;;48.73;;
26277;SDS011;14000;52.056;8.510;2022-09-29T00:35:59;50.40;;;32.17;;
26277;SDS011;14000;52.056;8.510;2022-09-29T00:38:29;85.60;;;41.60;;
26277;SDS011;14000;52.056;8.510;2022-09-29T00:40:56;43.93;;;30.10;;
26277;SDS011;14000;52.056;8.510;2022-09-29T00:43:23;78.50;;;40.33;;
26277;SDS011;14000;52.056;8.510;2022-09-29T00:46:08;46.47;;;30.27;;
26277;SDS011;14000;52.056;8.510;2022-09-29T00:48:36;65.93;;;35.27;;
26277;SDS011;14000;52.056;8.510;2022-09-29T00:51:02;42.77;;;28.90;;
26277;SDS011;14000;52.056;8.510;2022-09-29T00:53:28;42.37;;;29.20;;
26277;SDS011;14000;52.056;8.510;2022-09-29T00:55:55;43.70;;;28.70;;
26277;SDS011;14000;52.056;8.510;2022-09-29T01:00:52;44.20;;;28.20;;
26277;SDS011;14000;52.056;8.510;2022-09-29T01:03:19;46.33;;;30.67;;
26277;SDS011;14000;52.056;8.510;2022-09-29T01:05:49;39.90;;;28.60;;
26277;SDS011;14000;52.056;8.510;2022-09-29T01:08:22;78.37;;;38.07;;
26277;SDS011;14000;52.056;8.510;2022-09-29T01:11:00;69.17;;;38.00;;
26277;SDS011;14000;52.056;8.510;2022-09-29T01:13:28;49.50;;;32.20;;
26277;SDS011;14000;52.056;8.510;2022-09-29T01:15:55;48.13;;;31.63;;
26277;SDS011;14000;52.056;8.510;2022-09-29T01:18:21;41.93;;;29.13;;
26277;SDS011;14000;52.056;8.510;2022-09-29T01:20:51;47.87;;;32.53;;
26277;SDS011;14000;52.056;8.510;2022-09-29T01:29:03;50.53;;;33.33;;
26277;SDS011;14000;52.056;8.510;2022-09-29T01:31:56;60.07;;;34.70;;
26277;SDS011;14000;52.056;8.510;2022-09-29T01:37:28;42.33;;;28.63;;
26277;SDS011;14000;52.056;8.510;2022-09-29T01:43:00;43.07;;;29.63;;
26277;SDS011;14000;52.056;8.510;2022-09-29T01:45:33;42.30;;;27.13;;
26277;SDS011;14000;52.056;8.510;2022-09-29T01:48:03;45.70;;;29.37;;
26277;SDS011;14000;52.056;8.510;2022-09-29T01:50:37;72.97;;;37.30;;
26277;SDS011;14000;52.056;8.510;2022-09-29T01:53:07;79.23;;;41.67;;
26277;SDS011;14000;52.056;8.510;2022-09-29T01:55:41;63.10;;;36.63;;
26277;SDS011;14000;52.056;8.510;2022-09-29T01:58:20;63.67;;;35.27;;
26277;SDS011;14000;52.056;8.510;2022-09-29T02:00:57;44.47;;;28.37;;
26277;SDS011;14000;52.056;8.510;2022-09-29T02:03:29;72.73;;;37.93;;
26277;SDS011;14000;52.056;8.510;2022-09-29T02:06:19;57.83;;;34.50;;
26277;SDS011;14000;52.056;8.510;2022-09-29T02:08:50;65.90;;;37.33;;
26277;SDS011;14000;52.056;8.510;2022-09-29T02:11:18;80.37;;;39.03;;
26277;SDS011;14000;52.056;8.510;2022-09-29T02:13:53;93.70;;;43.43;;
26277;SDS011;14000;52.056;8.510;2022-09-29T02:16:22;82.33;;;40.93;;
26277;SDS011;14000;52.056;8.510;2022-09-29T02:21:28;81.43;;;40.97;;
26277;SDS011;14000;52.056;8.510;2022-09-29T02:23:54;50.47;;;33.10;;
26277;SDS011;14000;52.056;8.510;2022-09-29T02:26:20;70.37;;;38.57;;
26277;SDS011;14000;52.056;8.510;2022-09-29T02:28:49;50.13;;;31.47;;
26277;SDS011;14000;52.056;8.510;2022-09-29T02:31:16;53.93;;;33.00;;
26277;SDS011;14000;52.056;8.510;2022-09-29T02:33:42;59.07;;;33.60;;
26277;SDS011;14000;52.056;8.510;2022-09-29T02:39:00;75.43;;;37.97;;
26277;SDS011;14000;52.056;8.510;2022-09-29T02:46:49;48.53;;;32.40;;
26277;SDS011;14000;52.056;8.510;2022-09-29T02:49:27;80.10;;;40.57;;
26277;SDS011;14000;52.056;8.510;2022-09-29T02:52:11;43.03;;;28.67;;
26277;SDS011;14000;52.056;8.510;2022-09-29T02:55:04;53.37;;;33.20;;
26277;SDS011;14000;52.056;8.510;2022-09-29T02:57:41;38.90;;;25.30;;
26277;SDS011;14000;52.056;8.510;2022-09-29T03:00:10;72.63;;;37.00;;
26277;SDS011;14000;52.056;8.510;2022-09-29T03:02:43;70.03;;;38.67;;
26277;SDS011;14000;52.056;8.510;2022-09-29T03:05:10;99.80;;;44.87;;
26277;SDS011;14000;52.056;8.510;2022-09-29T03:07:38;42.40;;;28.70;;
26277;SDS011;14000;52.056;8.510;2022-09-29T03:10:05;82.57;;;41.20;;
26277;SDS011;14000;52.056;8.510;2022-09-29T03:12:31;47.43;;;31.07;;
26277;SDS011;14000;52.056;8.510;2022-09-29T03:14:57;90.93;;;43.00;;
26277;SDS011;14000;52.056;8.510;2022-09-29T03:17:23;83.83;;;41.07;;
26277;SDS011;14000;52.056;8.510;2022-09-29T03:19:48;43.53;;;28.63;;
26277;SDS011;14000;52.056;8.510;2022-09-29T03:22:14;47.27;;;30.87;;
26277;SDS011;14000;52.056;8.510;2022-09-29T03:24:40;59.93;;;35.23;;
26277;SDS011;14000;52.056;8.510;2022-09-29T03:27:06;65.10;;;37.40;;
26277;SDS011;14000;52.056;8.510;2022-09-29T03:29:33;42.87;;;29.07;;
26277;SDS011;14000;52.056;8.510;2022-09-29T03:31:59;52.67;;;32.10;;
26277;SDS011;14000;52.056;8.510;2022-09-29T03:34:25;67.60;;;38.00;;
26277;SDS011;14000;52.056;8.510;2022-09-29T03:36:51;71.07;;;38.20;;
26277;SDS011;14000;52.056;8.510;2022-09-29T03:39:16;46.37;;;30.47;;
26277;SDS011;14000;52.056;8.510;2022-09-29T03:41:42;92.40;;;41.70;;
26277;SDS011;14000;52.056;8.510;2022-09-29T03:44:08;45.77;;;28.80;;
26277;SDS011;14000;52.056;8.510;2022-09-29T03:46:33;60.87;;;35.30;;
26277;SDS011;14000;52.056;8.510;2022-09-29T03:48:59;50.37;;;31.33;;
26277;SDS011;14000;52.056;8.510;2022-09-29T03:51:24;49.80;;;30.47;;
26277;SDS011;14000;52.056;8.510;2022-09-29T03:53:50;73.00;;;37.93;;
26277;SDS011;14000;52.056;8.510;2022-09-29T03:56:15;51.33;;;31.10;;
26277;SDS011;14000;52.056;8.510;2022-09-29T03:58:41;92.93;;;41.97;;
26277;SDS011;14000;52.056;8.510;2022-09-29T04:01:07;42.97;;;29.20;;
26277;SDS011;14000;52.056;8.510;2022-09-29T04:03:32;42.27;;;28.17;;
26277;SDS011;14000;52.056;8.510;2022-09-29T04:05:58;49.60;;;31.70;;
26277;SDS011;14000;52.056;8.510;2022-09-29T04:08:23;45.30;;;29.10;;
26277;SDS011;14000;52.056;8.510;2022-09-29T04:10:49;46.13;;;29.40;;
26277;SDS011;14000;52.056;8.510;2022-09-29T04:13:15;58.97;;;34.33;;
26277;SDS011;14000;52.056;8.510;2022-09-29T04:15:41;39.23;;;25.27;;
26277;SDS011;14000;52.056;8.510;2022-09-29T04:18:06;76.27;;;38.30;;
26277;SDS011;14000;52.056;8.510;2022-09-29T04:20:32;53.80;;;32.57;;
26277;SDS011;14000;52.056;8.510;2022-09-29T04:22:58;48.33;;;31.20;;
26277;SDS011;14000;52.056;8.510;2022-09-29T04:25:25;52.07;;;31.47;;
26277;SDS011;14000;52.056;8.510;2022-09-29T04:27:51;47.13;;;29.23;;
26277;SDS011;14000;52.056;8.510;2022-09-29T04:30:17;47.40;;;28.90;;
26277;SDS011;14000;52.056;8.510;2022-09-29T04:32:43;71.53;;;36.47;;
26277;SDS011;14000;52.056;8.510;2022-09-29T04:35:09;51.93;;;31.80;;
26277;SDS011;14000;52.056;8.510;2022-09-29T04:37:34;52.67;;;32.67;;
26277;SDS011;14000;52.056;8.510;2022-09-29T04:40:00;46.97;;;30.23;;
26277;SDS011;14000;52.056;8.510;2022-09-29T04:42:27;47.27;;;30.40;;
26277;SDS011;14000;52.056;8.510;2022-09-29T04:44:53;51.47;;;30.17;;
26277;SDS011;14000;52.056;8.510;2022-09-29T04:47:18;43.70;;;27.90;;
26277;SDS011;14000;52.056;8.510;2022-09-29T04:49:44;38.73;;;25.50;;
26277;SDS011;14000;52.056;8.510;2022-09-29T04:52:10;41.80;;;26.73;;
26277;SDS011;14000;52.056;8.510;2022-09-29T04:54:36;40.83;;;26.30;;
26277;SDS011;14000;52.056;8.510;2022-09-29T04:57:02;36.33;;;23.73;;
26277;SDS011;14000;52.056;8.510;2022-09-29T04:59:27;39.80;;;24.73;;
26277;SDS011;14000;52.056;8.510;2022-09-29T05:01:53;34.20;;;22.73;;
26277;SDS011;14000;52.056;8.510;2022-09-29T05:04:19;30.13;;;19.43;;
26277;SDS011;14000;52.056;8.510;2022-09-29T05:06:44;31.87;;;21.90;;
26277;SDS011;14000;52.056;8.510;2022-09-29T05:09:10;35.43;;;21.10;;
26277;SDS011;14000;52.056;8.510;2022-09-29T05:11:36;32.87;;;22.17;;
26277;SDS011;14000;52.056;8.510;2022-09-29T05:14:02;32.37;;;22.13;;
26277;SDS011;14000;52.056;8.510;2022-09-29T05:16:28;34.70;;;21.53;;
26277;SDS011;14000;52.056;8.510;2022-09-29T05:18:53;29.80;;;19.77;;
26277;SDS011;14000;52.056;8.510;2022-09-29T05:21:19;33.67;;;21.03;;
26277;SDS011;14000;52.056;8.510;2022-09-29T05:23:45;42.37;;;24.83;;
26277;SDS011;14000;52.056;8.510;2022-09-29T05:26:11;32.00;;;20.80;;
26277;SDS011;14000;52.056;8.510;2022-09-29T05:28:38;38.17;;;23.53;;
26277;SDS011;14000;52.056;8.510;2022-09-29T05:31:07;30.60;;;19.50;;
26277;SDS011;14000;52.056;8.510;2022-09-29T05:33:33;32.13;;;18.67;;
26277;SDS011;14000;52.056;8.510;2022-09-29T05:36:00;27.00;;;17.60;;
26277;SDS011;14000;52.056;8.510;2022-09-29T05:38:29;30.63;;;18.87;;
26277;SDS011;14000;52.056;8.510;2022-09-29T05:40:55;42.40;;;23.33;;
26277;SDS011;14000;52.056;8.510;2022-09-29T05:43:21;32.90;;;18.67;;
26277;SDS011;14000;52.056;8.510;2022-09-29T05:45:46;31.70;;;19.37;;
26277;SDS011;14000;52.056;8.510;2022-09-29T05:48:12;26.43;;;17.57;;
26277;SDS011;14000;52.056;8.510;2022-09-29T05:50:38;39.03;;;21.30;;
26277;SDS011;14000;52.056;8.510;2022-09-29T05:53:07;28.07;;;17.40;;
26277;SDS011;14000;52.056;8.510;2022-09-29T05:55:36;30.03;;;18.00;;
26277;SDS011;14000;52.056;8.510;2022-09-29T05:58:05;53.13;;;25.37;;
26277;SDS011;14000;52.056;8.510;2022-09-29T06:00:31;61.07;;;26.83;;
26277;SDS011;14000;52.056;8.510;2022-09-29T06:02:58;51.90;;;25.67;;
26277;SDS011;14000;52.056;8.510;2022-09-29T06:05:24;55.70;;;27.67;;
26277;SDS011;14000;52.056;8.510;2022-09-29T06:07:50;39.60;;;22.70;;
26277;SDS011;14000;52.056;8.510;2022-09-29T06:10:16;53.33;;;26.97;;
26277;SDS011;14000;52.056;8.510;2022-09-29T06:12:42;61.47;;;28.53;;
26277;SDS011;14000;52.056;8.510;2022-09-29T06:15:09;52.43;;;27.40;;
26277;SDS011;14000;52.056;8.510;2022-09-29T06:17:35;65.93;;;31.40;;
26277;SDS011;14000;52.056;8.510;2022-09-29T06:20:02;55.80;;;28.90;;
26277;SDS011;14000;52.056;8.510;2022-09-29T06:22:29;36.43;;;23.13;;
26277;SDS011;14000;52.056;8.510;2022-09-29T06:24:55;37.07;;;22.57;;
26277;SDS011;14000;52.056;8.510;2022-09-29T06:27:20;36.73;;;22.63;;
26277;SDS011;14000;52.056;8.510;2022-09-29T06:29:46;41.37;;;24.23;;
26277;SDS011;14000;52.056;8.510;2022-09-29T06:32:12;36.17;;;21.80;;
26277;SDS011;14000;52.056;8.510;2022-09-29T06:34:37;42.50;;;24.60;;
26277;SDS011;14000;52.056;8.510;2022-09-29T06:37:23;66.97;;;31.67;;
26277;SDS011;14000;52.056;8.510;2022-09-29T06:40:04;77.17;;;33.97;;
26277;SDS011;14000;52.056;8.510;2022-09-29T06:42:32;44.57;;;26.17;;
26277;SDS011;14000;52.056;8.510;2022-09-29T06:44:58;71.73;;;33.43;;
26277;SDS011;14000;52.056;8.510;2022-09-29T06:47:24;58.33;;;31.50;;
26277;SDS011;14000;52.056;8.510;2022-09-29T06:49:50;46.03;;;28.00;;
26277;SDS011;14000;52.056;8.510;2022-09-29T06:52:16;59.77;;;31.13;;
26277;SDS011;14000;52.056;8.510;2022-09-29T06:54:42;50.17;;;27.07;;
26277;SDS011;14000;52.056;8.510;2022-09-29T06:57:08;48.43;;;26.83;;
26277;SDS011;14000;52.056;8.510;2022-09-29T06:59:33;50.20;;;26.47;;
26277;SDS011;14000;52.056;8.510;2022-09-29T07:01:59;41.77;;;23.77;;
26277;SDS011;14000;52.056;8.510;2022-09-29T07:04:25;45.17;;;24.60;;
26277;SDS011;14000;52.056;8.510;2022-09-29T07:06:50;43.97;;;25.97;;
26277;SDS011;14000;52.056;8.510;2022-09-29T07:09:16;45.83;;;27.10;;
26277;SDS011;14000;52.056;8.510;2022-09-29T07:11:43;41.93;;;24.67;;
26277;SDS011;14000;52.056;8.510;2022-09-29T07:14:14;44.90;;;26.03;;
26277;SDS011;14000;52.056;8.510;2022-09-29T07:16:41;44.77;;;25.00;;
26277;SDS011;14000;52.056;8.510;2022-09-29T07:19:07;46.10;;;24.93;;
26277;SDS011;14000;52.056;8.510;2022-09-29T07:21:33;41.67;;;22.17;;
26277;SDS011;14000;52.056;8.510;2022-09-29T07:23:58;60.67;;;28.33;;
26277;SDS011;14000;52.056;8.510;2022-09-29T07:26:24;43.77;;;22.90;;
26277;SDS011;14000;52.056;8.510;2022-09-29T07:28:50;41.27;;;23.13;;
26277;SDS011;14000;52.056;8.510;2022-09-29T07:31:16;43.23;;;23.03;;
26277;SDS011;14000;52.056;8.510;2022-09-29T07:33:45;40.07;;;22.70;;
26277;SDS011;14000;52.056;8.510;2022-09-29T07:36:13;44.40;;;23.17;;
26277;SDS011;14000;52.056;8.510;2022-09-29T07:38:39;40.57;;;22.27;;
26277;SDS011;14000;52.056;8.510;2022-09-29T07:41:06;43.60;;;23.67;;
26277;SDS011;14000;52.056;8.510;2022-09-29T07:43:34;41.67;;;23.40;;
26277;SDS011;14000;52.056;8.510;2022-09-29T07:46:00;46.53;;;24.70;;
26277;SDS011;14000;52.056;8.510;2022-09-29T07:48:26;41.93;;;22.80;;
26277;SDS011;14000;52.056;8.510;2022-09-29T07:50:58;52.77;;;27.37;;
26277;SDS011;14000;52.056;8.510;2022-09-29T07:53:26;52.33;;;27.57;;
26277;SDS011;14000;52.056;8.510;2022-09-29T07:55:52;49.40;;;27.83;;
26277;SDS011;14000;52.056;8.510;2022-09-29T07:58:17;51.33;;;28.17;;
26277;SDS011;14000;52.056;8.510;2022-09-29T08:00:43;52.37;;;27.67;;
26277;SDS011;14000;52.056;8.510;2022-09-29T08:03:08;50.30;;;28.57;;
26277;SDS011;14000;52.056;8.510;2022-09-29T08:05:34;47.07;;;26.90;;
26277;SDS011;14000;52.056;8.510;2022-09-29T08:08:00;55.03;;;28.40;;
26277;SDS011;14000;52.056;8.510;2022-09-29T08:10:30;59.83;;;30.40;;
26277;SDS011;14000;52.056;8.510;2022-09-29T08:12:57;63.83;;;32.90;;
26277;SDS011;14000;52.056;8.510;2022-09-29T08:15:22;62.13;;;31.50;;
26277;SDS011;14000;52.056;8.510;2022-09-29T08:17:52;68.50;;;31.90;;
26277;SDS011;14000;52.056;8.510;2022-09-29T08:20:19;62.47;;;32.67;;
26277;SDS011;14000;52.056;8.510;2022-09-29T08:22:48;58.77;;;31.03;;
26277;SDS011;14000;52.056;8.510;2022-09-29T08:25:15;64.37;;;31.57;;
26277;SDS011;14000;52.056;8.510;2022-09-29T08:27:41;66.30;;;31.67;;
26277;SDS011;14000;52.056;8.510;2022-09-29T08:30:07;58.67;;;31.20;;
26277;SDS011;14000;52.056;8.510;2022-09-29T08:32:34;54.97;;;28.60;;
26277;SDS011;14000;52.056;8.510;2022-09-29T08:35:00;63.07;;;31.33;;
26277;SDS011;14000;52.056;8.510;2022-09-29T08:37:26;51.37;;;30.83;;
26277;SDS011;14000;52.056;8.510;2022-09-29T08:39:52;49.87;;;29.23;;
26277;SDS011;14000;52.056;8.510;2022-09-29T08:45:07;48.87;;;27.97;;
26277;SDS011;14000;52.056;8.510;2022-09-29T08:47:44;42.93;;;26.00;;
26277;SDS011;14000;52.056;8.510;2022-09-29T08:50:21;42.97;;;25.87;;
26277;SDS011;14000;52.056;8.510;2022-09-29T08:52:56;41.10;;;24.73;;
26277;SDS011;14000;52.056;8.510;2022-09-29T08:55:26;40.30;;;25.10;;
26277;SDS011;14000;52.056;8.510;2022-09-29T08:58:00;39.97;;;24.00;;
26277;SDS011;14000;52.056;8.510;2022-09-29T09:00:50;38.17;;;22.77;;
26277;SDS011;14000;52.056;8.510;2022-09-29T09:03:13;37.40;;;22.10;;
26277;SDS011;14000;52.056;8.510;2022-09-29T09:05:50;38.37;;;22.83;;
26277;SDS011;14000;52.056;8.510;2022-09-29T09:11:48;36.17;;;21.43;;
26277;SDS011;14000;52.056;8.510;2022-09-29T09:14:57;35.27;;;21.70;;
26277;SDS011;14000;52.056;8.510;2022-09-29T09:20:35;34.07;;;21.23;;
26277;SDS011;14000;52.056;8.510;2022-09-29T09:26:02;31.80;;;19.30;;
26277;SDS011;14000;52.056;8.510;2022-09-29T09:31:14;34.03;;;20.03;;
26277;SDS011;14000;52.056;8.510;2022-09-29T09:36:30;30.70;;;17.80;;
26277;SDS011;14000;52.056;8.510;2022-09-29T09:39:04;29.20;;;16.60;;
26277;SDS011;14000;52.056;8.510;2022-09-29T09:41:33;25.87;;;15.93;;
26277;SDS011;14000;52.056;8.510;2022-09-29T09:46:57;22.50;;;13.60;;
26277;SDS011;14000;52.056;8.510;2022-09-29T09:49:40;21.83;;;13.30;;
26277;SDS011;14000;52.056;8.510;2022-09-29T09:52:12;21.87;;;12.50;;
26277;SDS011;14000;52.056;8.510;2022-09-29T09:55:12;21.97;;;13.40;;
26277;SDS011;14000;52.056;8.510;2022-09-29T10:00:47;21.63;;;12.70;;
26277;SDS011;14000;52.056;8.510;2022-09-29T10:03:28;21.43;;;12.40;;
26277;SDS011;14000;52.056;8.510;2022-09-29T10:05:54;21.20;;;12.20;;
26277;SDS011;14000;52.056;8.510;2022-09-29T10:08:24;17.17;;;9.07;;
26277;SDS011;14000;52.056;8.510;2022-09-29T10:10:52;15.60;;;9.23;;
26277;SDS011;14000;52.056;8.510;2022-09-29T10:13:18;18.10;;;8.63;;
26277;SDS011;14000;52.056;8.510;2022-09-29T10:16:30;17.03;;;10.13;;
26277;SDS011;14000;52.056;8.510;2022-09-29T10:18:40;20.83;;;10.30;;
26277;SDS011;14000;52.056;8.510;2022-09-29T10:21:20;16.63;;;9.03;;
26277;SDS011;14000;52.056;8.510;2022-09-29T10:23:51;17.93;;;8.27;;
26277;SDS011;14000;52.056;8.510;2022-09-29T10:26:18;15.47;;;9.57;;
26277;SDS011;14000;52.056;8.510;2022-09-29T10:28:54;17.87;;;9.77;;
26277;SDS011;14000;52.056;8.510;2022-09-29T10:31:30;15.40;;;8.83;;
26277;SDS011;14000;52.056;8.510;2022-09-29T10:37:40;15.37;;;8.23;;
26277;SDS011;14000;52.056;8.510;2022-09-29T10:39:45;17.10;;;8.77;;
26277;SDS011;14000;52.056;8.510;2022-09-29T10:42:16;13.60;;;7.53;;
26277;SDS011;14000;52.056;8.510;2022-09-29T10:44:41;13.53;;;6.97;;
26277;SDS011;14000;52.056;8.510;2022-09-29T10:47:13;16.33;;;8.43;;
26277;SDS011;14000;52.056;8.510;2022-09-29T10:49:39;14.60;;;6.97;;
26277;SDS011;14000;52.056;8.510;2022-09-29T10:52:06;11.63;;;6.73;;
26277;SDS011;14000;52.056;8.510;2022-09-29T10:54:52;11.30;;;5.83;;
26277;SDS011;14000;52.056;8.510;2022-09-29T10:57:22;12.00;;;6.30;;
26277;SDS011;14000;52.056;8.510;2022-09-29T10:59:51;12.73;;;6.17;;
26277;SDS011;14000;52.056;8.510;2022-09-29T11:04:57;10.83;;;4.63;;
26277;SDS011;14000;52.056;8.510;2022-09-29T11:07:25;10.87;;;4.90;;
26277;SDS011;14000;52.056;8.510;2022-09-29T11:09:51;11.13;;;4.87;;
26277;SDS011;14000;52.056;8.510;2022-09-29T11:14:57;9.87;;;4.00;;
26277;SDS011;14000;52.056;8.510;2022-09-29T11:17:30;9.80;;;3.53;;
26277;SDS011;14000;52.056;8.510;2022-09-29T11:20:04;8.83;;;3.13;;
26277;SDS011;14000;52.056;8.510;2022-09-29T11:30:55;8.30;;;2.30;;
26277;SDS011;14000;52.056;8.510;2022-09-29T11:36:19;9.57;;;2.40;;
26277;SDS011;14000;52.056;8.510;2022-09-29T11:50:02;8.87;;;3.10;;
26277;SDS011;14000;52.056;8.510;2022-09-29T11:55:29;6.70;;;1.90;;
26277;SDS011;14000;52.056;8.510;2022-09-29T12:03:54;6.83;;;2.10;;
26277;SDS011;14000;52.056;8.510;2022-09-29T12:17:47;9.40;;;3.80;;
26277;SDS011;14000;52.056;8.510;2022-09-29T12:22:52;12.33;;;4.60;;
26277;SDS011;14000;52.056;8.510;2022-09-29T12:25:22;9.27;;;4.10;;
26277;SDS011;14000;52.056;8.510;2022-09-29T12:27:52;7.87;;;3.50;;
26277;SDS011;14000;52.056;8.510;2022-09-29T12:30:32;10.67;;;3.50;;
26277;SDS011;14000;52.056;8.510;2022-09-29T12:33:14;9.40;;;3.90;;
26277;SDS011;14000;52.056;8.510;2022-09-29T12:45:18;12.43;;;4.60;;
26277;SDS011;14000;52.056;8.510;2022-09-29T12:50:25;9.70;;;3.90;;
26277;SDS011;14000;52.056;8.510;2022-09-29T12:53:01;9.43;;;4.13;;
26277;SDS011;14000;52.056;8.510;2022-09-29T12:55:36;12.10;;;5.30;;
26277;SDS011;14000;52.056;8.510;2022-09-29T13:01:09;10.27;;;5.00;;
26277;SDS011;14000;52.056;8.510;2022-09-29T13:06:36;10.17;;;4.80;;
26277;SDS011;14000;52.056;8.510;2022-09-29T13:09:46;10.83;;;5.53;;
26277;SDS011;14000;52.056;8.510;2022-09-29T13:18:22;11.03;;;5.77;;
26277;SDS011;14000;52.056;8.510;2022-09-29T13:21:04;10.03;;;4.70;;
26277;SDS011;14000;52.056;8.510;2022-09-29T13:23:54;10.53;;;4.77;;
26277;SDS011;14000;52.056;8.510;2022-09-29T13:29:19;9.47;;;4.90;;
26277;SDS011;14000;52.056;8.510;2022-09-29T13:31:48;9.83;;;4.33;;
26277;SDS011;14000;52.056;8.510;2022-09-29T13:34:22;11.60;;;3.80;;
26277;SDS011;14000;52.056;8.510;2022-09-29T13:37:14;12.63;;;3.70;;
26277;SDS011;14000;52.056;8.510;2022-09-29T13:39:42;9.93;;;3.20;;
26277;SDS011;14000;52.056;8.510;2022-09-29T13:42:37;8.87;;;3.00;;
26277;SDS011;14000;52.056;8.510;2022-09-29T13:47:46;10.80;;;3.77;;
26277;SDS011;14000;52.056;8.510;2022-09-29T13:58:32;8.50;;;2.80;;
26277;SDS011;14000;52.056;8.510;2022-09-29T14:00:59;8.23;;;2.67;;
26277;SDS011;14000;52.056;8.510;2022-09-29T14:11:38;8.90;;;3.10;;
26277;SDS011;14000;52.056;8.510;2022-09-29T14:14:07;8.77;;;2.63;;
26277;SDS011;14000;52.056;8.510;2022-09-29T14:22:01;9.87;;;3.23;;
26277;SDS011;14000;52.056;8.510;2022-09-29T14:29:40;7.73;;;2.50;;
26277;SDS011;14000;52.056;8.510;2022-09-29T14:32:13;8.23;;;2.70;;
26277;SDS011;14000;52.056;8.510;2022-09-29T14:34:47;10.10;;;2.30;;
26277;SDS011;14000;52.056;8.510;2022-09-29T14:37:17;8.93;;;2.60;;
26277;SDS011;14000;52.056;8.510;2022-09-29T14:39:45;8.13;;;2.50;;
26277;SDS011;14000;52.056;8.510;2022-09-29T14:42:31;9.27;;;2.70;;
26277;SDS011;14000;52.056;8.510;2022-09-29T14:44:58;7.13;;;2.43;;
26277;SDS011;14000;52.056;8.510;2022-09-29T14:53:49;9.43;;;3.03;;
26277;SDS011;14000;52.056;8.510;2022-09-29T14:56:36;8.53;;;3.10;;
26277;SDS011;14000;52.056;8.510;2022-09-29T15:02:15;8.17;;;2.77;;
26277;SDS011;14000;52.056;8.510;2022-09-29T15:04:45;9.20;;;2.37;;
26277;SDS011;14000;52.056;8.510;2022-09-29T15:07:12;8.77;;;2.80;;
26277;SDS011;14000;52.056;8.510;2022-09-29T15:09:44;8.10;;;2.53;;
26277;SDS011;14000;52.056;8.510;2022-09-29T15:12:12;7.83;;;2.60;;
26277;SDS011;14000;52.056;8.510;2022-09-29T15:14:52;7.07;;;2.43;;
26277;SDS011;14000;52.056;8.510;2022-09-29T15:20:05;7.60;;;2.10;;
26277;SDS011;14000;52.056;8.510;2022-09-29T15:22:37;8.13;;;2.30;;
26277;SDS011;14000;52.056;8.510;2022-09-29T15:27:54;6.67;;;2.20;;
26277;SDS011;14000;52.056;8.510;2022-09-29T15:30:34;8.07;;;1.90;;
26277;SDS011;14000;52.056;8.510;2022-09-29T15:33:03;7.20;;;2.30;;
26277;SDS011;14000;52.056;8.510;2022-09-29T15:35:41;8.10;;;2.30;;
26277;SDS011;14000;52.056;8.510;2022-09-29T15:40:42;7.50;;;2.17;;
26277;SDS011;14000;52.056;8.510;2022-09-29T15:43:19;7.33;;;2.30;;
26277;SDS011;14000;52.056;8.510;2022-09-29T15:45:54;7.97;;;2.90;;
26277;SDS011;14000;52.056;8.510;2022-09-29T15:48:25;9.83;;;2.70;;
26277;SDS011;14000;52.056;8.510;2022-09-29T15:50:52;9.77;;;3.60;;
26277;SDS011;14000;52.056;8.510;2022-09-29T15:53:22;10.70;;;2.80;;
26277;SDS011;14000;52.056;8.510;2022-09-29T15:55:54;7.77;;;2.37;;
26277;SDS011;14000;52.056;8.510;2022-09-29T15:58:33;7.37;;;2.20;;
26277;SDS011;14000;52.056;8.510;2022-09-29T16:01:05;7.80;;;2.20;;
26277;SDS011;14000;52.056;8.510;2022-09-29T16:08:56;7.23;;;2.20;;
26277;SDS011;14000;52.056;8.510;2022-09-29T16:11:35;6.87;;;2.37;;
26277;SDS011;14000;52.056;8.510;2022-09-29T16:14:08;7.60;;;2.80;;
26277;SDS011;14000;52.056;8.510;2022-09-29T16:16:42;8.30;;;2.70;;
26277;SDS011;14000;52.056;8.510;2022-09-29T16:19:43;7.73;;;2.70;;
26277;SDS011;14000;52.056;8.510;2022-09-29T16:22:03;6.73;;;2.20;;
26277;SDS011;14000;52.056;8.510;2022-09-29T16:24:33;10.07;;;2.30;;
26277;SDS011;14000;52.056;8.510;2022-09-29T16:27:00;8.47;;;2.77;;
26277;SDS011;14000;52.056;8.510;2022-09-29T16:29:27;8.63;;;2.90;;
26277;SDS011;14000;52.056;8.510;2022-09-29T16:31:53;8.80;;;2.83;;
26277;SDS011;14000;52.056;8.510;2022-09-29T16:36:49;10.00;;;2.60;;
26277;SDS011;14000;52.056;8.510;2022-09-29T16:39:17;8.47;;;2.27;;
26277;SDS011;14000;52.056;8.510;2022-09-29T16:41:48;8.03;;;2.70;;
26277;SDS011;14000;52.056;8.510;2022-09-29T16:47:15;8.80;;;2.87;;
26277;SDS011;14000;52.056;8.510;2022-09-29T16:52:19;10.50;;;3.73;;
26277;SDS011;14000;52.056;8.510;2022-09-29T16:54:51;10.20;;;4.33;;
26277;SDS011;14000;52.056;8.510;2022-09-29T17:00:15;8.50;;;3.40;;
26277;SDS011;14000;52.056;8.510;2022-09-29T17:02:40;9.40;;;3.53;;
26277;SDS011;14000;52.056;8.510;2022-09-29T17:05:05;12.13;;;4.10;;
26277;SDS011;14000;52.056;8.510;2022-09-29T17:07:31;9.73;;;3.60;;
26277;SDS011;14000;52.056;8.510;2022-09-29T17:10:05;8.47;;;3.40;;
26277;SDS011;14000;52.056;8.510;2022-09-29T17:12:32;9.33;;;3.40;;
26277;SDS011;14000;52.056;8.510;2022-09-29T17:14:58;11.33;;;3.37;;
26277;SDS011;14000;52.056;8.510;2022-09-29T17:17:24;11.33;;;4.00;;
26277;SDS011;14000;52.056;8.510;2022-09-29T17:19:52;11.27;;;4.23;;
26277;SDS011;14000;52.056;8.510;2022-09-29T17:22:29;10.70;;;4.70;;
26277;SDS011;14000;52.056;8.510;2022-09-29T17:25:00;12.40;;;4.30;;
26277;SDS011;14000;52.056;8.510;2022-09-29T17:27:27;9.67;;;4.40;;
26277;SDS011;14000;52.056;8.510;2022-09-29T17:30:12;11.43;;;4.70;;
26277;SDS011;14000;52.056;8.510;2022-09-29T17:32:43;11.87;;;4.90;;
26277;SDS011;14000;52.056;8.510;2022-09-29T17:35:10;12.07;;;4.40;;
26277;SDS011;14000;52.056;8.510;2022-09-29T17:37:40;10.60;;;4.67;;
26277;SDS011;14000;52.056;8.510;2022-09-29T17:43:07;10.27;;;4.73;;
26277;SDS011;14000;52.056;8.510;2022-09-29T17:45:32;9.23;;;4.77;;
26277;SDS011;14000;52.056;8.510;2022-09-29T17:47:59;11.13;;;5.00;;
26277;SDS011;14000;52.056;8.510;2022-09-29T17:50:36;11.23;;;5.20;;
26277;SDS011;14000;52.056;8.510;2022-09-29T17:53:08;11.83;;;5.23;;
26277;SDS011;14000;52.056;8.510;2022-09-29T17:55:41;10.93;;;4.60;;
26277;SDS011;14000;52.056;8.510;2022-09-29T17:58:10;11.57;;;5.17;;
26277;SDS011;14000;52.056;8.510;2022-09-29T18:00:38;13.33;;;5.67;;